createdAt,value
2016-05-27T00:00:20.043Z,960.01
2016-05-27T00:01:20.045Z,959.96
2016-05-27T00:02:20.064Z,959.98
2016-05-27T00:03:20.098Z,959.98
2016-05-27T00:04:20.117Z,959.95
2016-05-27T00:05:20.088Z,959.93
2016-05-27T00:06:20.091Z,959.91
2016-05-27T00:07:20.109Z,959.94
2016-05-27T00:08:20.111Z,959.91
2016-05-27T00:09:20.130Z,959.93
2016-05-27T00:10:20.133Z,959.96
2016-05-27T00:11:20.150Z,959.9
2016-05-27T00:12:20.169Z,959.95
2016-05-27T00:13:20.171Z,959.89
2016-05-27T00:14:20.175Z,959.88
2016-05-27T00:15:20.193Z,959.91
2016-05-27T00:16:20.210Z,959.89
2016-05-27T00:17:20.198Z,959.87
2016-05-27T00:18:20.216Z,959.89
2016-05-27T00:19:20.235Z,959.91
2016-05-27T00:20:20.238Z,959.9
2016-05-27T00:21:20.256Z,959.87
2016-05-27T00:22:20.258Z,959.94
2016-05-27T00:23:20.261Z,959.88
2016-05-27T00:24:20.280Z,959.87
2016-05-27T00:25:20.298Z,959.85
2016-05-27T00:26:20.301Z,959.89
2016-05-27T00:27:20.303Z,959.87
2016-05-27T00:28:20.321Z,959.94
2016-05-27T00:29:20.323Z,959.96
2016-05-27T00:30:20.342Z,959.9
2016-05-27T00:31:20.345Z,959.93
2016-05-27T00:32:20.364Z,959.96
2016-05-27T00:33:20.366Z,959.97
2016-05-27T00:34:20.806Z,959.94
2016-05-27T00:35:20.402Z,959.96
2016-05-27T00:36:20.405Z,959.95
2016-05-27T00:37:20.408Z,959.89
2016-05-27T00:38:20.427Z,959.95
2016-05-27T00:39:20.429Z,959.9
2016-05-27T00:40:20.447Z,959.88
2016-05-27T00:41:20.450Z,959.87
2016-05-27T00:42:20.452Z,959.81
2016-05-27T00:43:20.471Z,959.83
2016-05-27T00:44:20.474Z,959.8
2016-05-27T00:45:20.492Z,959.82
2016-05-27T00:46:20.494Z,959.78
2016-05-27T00:47:20.513Z,959.77
2016-05-27T00:48:20.515Z,959.76
2016-05-27T00:49:20.535Z,959.77
2016-05-27T00:50:20.537Z,959.77
2016-05-27T00:51:20.571Z,959.76
2016-05-27T00:52:20.557Z,959.75
2016-05-27T00:53:20.576Z,959.71
2016-05-27T00:54:20.595Z,959.74
2016-05-27T00:55:20.597Z,959.74
2016-05-27T00:56:20.600Z,959.74
2016-05-27T00:57:20.603Z,959.76
2016-05-27T00:58:20.620Z,959.76
2016-05-27T00:59:20.624Z,959.71
2016-05-27T01:00:20.642Z,959.71
2016-05-27T01:01:20.644Z,959.72
2016-05-27T01:02:20.663Z,959.69
2016-05-27T01:03:21.009Z,959.68
2016-05-27T01:04:20.684Z,959.68
2016-05-27T01:05:20.702Z,959.66
2016-05-27T01:06:20.705Z,959.67
2016-05-27T01:07:20.723Z,959.68
2016-05-27T01:08:20.725Z,959.69
2016-05-27T01:09:20.728Z,959.73
2016-05-27T01:10:20.746Z,959.76
2016-05-27T01:11:20.749Z,959.74
2016-05-27T01:12:20.752Z,959.79
2016-05-27T01:13:20.771Z,959.77
2016-05-27T01:14:20.774Z,959.72
2016-05-27T01:15:20.791Z,959.78
2016-05-27T01:16:20.810Z,959.74
2016-05-27T01:17:20.813Z,959.74
2016-05-27T01:18:20.831Z,959.75
2016-05-27T01:19:20.833Z,959.75
2016-05-27T01:20:20.836Z,959.79
2016-05-27T01:21:20.854Z,959.76
2016-05-27T01:22:20.858Z,959.77
2016-05-27T01:23:20.859Z,959.7
2016-05-27T01:24:20.878Z,959.76
2016-05-27T01:25:20.896Z,959.72
2016-05-27T01:26:20.915Z,959.69
2016-05-27T01:27:20.918Z,959.71
2016-05-27T01:28:20.921Z,959.75
2016-05-27T01:29:20.954Z,959.76
2016-05-27T01:30:20.942Z,959.72
2016-05-27T01:31:20.944Z,959.72
2016-05-27T01:32:20.962Z,959.73
2016-05-27T01:33:21.325Z,959.73
2016-05-27T01:34:20.984Z,959.77
2016-05-27T01:35:20.986Z,959.76
2016-05-27T01:36:20.988Z,959.74
2016-05-27T01:37:21.007Z,959.79
2016-05-27T01:38:21.025Z,959.77
2016-05-27T01:39:21.028Z,959.77
2016-05-27T01:40:21.030Z,959.81
2016-05-27T01:41:21.049Z,959.76
2016-05-27T01:42:21.067Z,959.78
2016-05-27T01:43:21.086Z,959.8
2016-05-27T01:44:21.088Z,959.79
2016-05-27T01:45:21.075Z,959.8
2016-05-27T01:46:21.110Z,959.8
2016-05-27T01:47:21.112Z,959.8
2016-05-27T01:48:21.115Z,959.78
2016-05-27T01:49:21.120Z,959.74
2016-05-27T01:50:21.157Z,959.74
2016-05-27T01:51:21.195Z,959.75
2016-05-27T01:52:21.232Z,959.73
2016-05-27T01:53:21.254Z,959.76
2016-05-27T01:54:21.274Z,959.78
2016-05-27T01:55:21.300Z,959.8
2016-05-27T01:56:21.309Z,959.83
2016-05-27T01:57:21.319Z,959.8
2016-05-27T01:58:21.345Z,959.78
2016-05-27T01:59:21.353Z,959.73
2016-05-27T02:00:21.374Z,959.73
2016-05-27T02:01:21.380Z,959.73
2016-05-27T02:02:21.400Z,959.74
2016-05-27T02:03:21.437Z,959.75
2016-05-27T02:04:21.817Z,959.76
2016-05-27T02:05:21.430Z,959.73
2016-05-27T02:06:21.449Z,959.72
2016-05-27T02:07:21.453Z,959.75
2016-05-27T02:08:21.473Z,959.73
2016-05-27T02:09:21.475Z,959.74
2016-05-27T02:10:21.479Z,959.73
2016-05-27T02:11:21.496Z,959.72
2016-05-27T02:12:21.500Z,959.7
2016-05-27T02:13:21.519Z,959.71
2016-05-27T02:14:21.521Z,959.7
2016-05-27T02:15:21.540Z,959.71
2016-05-27T02:16:21.543Z,959.77
2016-05-27T02:17:21.561Z,959.72
2016-05-27T02:18:21.564Z,959.7
2016-05-27T02:19:21.583Z,959.7
2016-05-27T02:20:21.585Z,959.67
2016-05-27T02:21:21.603Z,959.68
2016-05-27T02:22:21.606Z,959.72
2016-05-27T02:23:21.624Z,959.68
2016-05-27T02:24:21.627Z,959.7
2016-05-27T02:25:21.629Z,959.68
2016-05-27T02:26:21.648Z,959.71
2016-05-27T02:27:21.650Z,959.69
2016-05-27T02:28:21.668Z,959.69
2016-05-27T02:29:21.671Z,959.68
2016-05-27T02:30:21.674Z,959.67
2016-05-27T02:31:21.692Z,959.68
2016-05-27T02:32:21.711Z,959.71
2016-05-27T02:33:21.822Z,959.68
2016-05-27T02:34:21.732Z,959.71
2016-05-27T02:35:21.734Z,959.72
2016-05-27T02:36:21.753Z,959.68
2016-05-27T02:37:21.755Z,959.7
2016-05-27T02:38:21.759Z,959.64
2016-05-27T02:39:21.777Z,959.61
2016-05-27T02:40:21.779Z,959.61
2016-05-27T02:41:21.797Z,959.6
2016-05-27T02:42:21.800Z,959.66
2016-05-27T02:43:21.819Z,959.63
2016-05-27T02:44:21.837Z,959.62
2016-05-27T02:45:21.839Z,959.64
2016-05-27T02:46:21.841Z,959.64
2016-05-27T02:47:21.860Z,959.61
2016-05-27T02:48:21.863Z,959.6
2016-05-27T02:49:21.866Z,959.59
2016-05-27T02:50:21.885Z,959.53
2016-05-27T02:51:21.887Z,959.53
2016-05-27T02:52:21.905Z,959.54
2016-05-27T02:53:21.908Z,959.48
2016-05-27T02:54:21.926Z,959.48
2016-05-27T02:55:21.929Z,959.49
2016-05-27T02:56:21.932Z,959.48
2016-05-27T02:57:21.950Z,959.42
2016-05-27T02:58:21.968Z,959.44
2016-05-27T02:59:21.971Z,959.44
2016-05-27T03:00:21.974Z,959.45
2016-05-27T03:01:21.977Z,959.45
2016-05-27T03:02:21.995Z,959.46
2016-05-27T03:03:22.013Z,959.45
2016-05-27T03:04:22.015Z,959.48
2016-05-27T03:05:22.034Z,959.47
2016-05-27T03:06:22.037Z,959.51
2016-05-27T03:07:22.056Z,959.47
2016-05-27T03:08:22.058Z,959.52
2016-05-27T03:09:22.076Z,959.55
2016-05-27T03:10:22.095Z,959.55
2016-05-27T03:11:22.097Z,959.59
2016-05-27T03:12:22.100Z,959.57
2016-05-27T03:13:22.102Z,959.59
2016-05-27T03:14:22.122Z,959.57
2016-05-27T03:15:22.124Z,959.59
2016-05-27T03:16:22.142Z,959.63
2016-05-27T03:17:22.144Z,959.66
2016-05-27T03:18:22.147Z,959.63
2016-05-27T03:19:22.166Z,959.64
2016-05-27T03:20:22.169Z,959.64
2016-05-27T03:21:22.186Z,959.63
2016-05-27T03:22:22.189Z,959.65
2016-05-27T03:23:22.208Z,959.63
2016-05-27T03:24:22.210Z,959.6
2016-05-27T03:25:22.229Z,959.64
2016-05-27T03:26:22.231Z,959.64
2016-05-27T03:27:22.249Z,959.67
2016-05-27T03:28:22.252Z,959.67
2016-05-27T03:29:22.271Z,959.68
2016-05-27T03:30:22.289Z,959.69
2016-05-27T03:31:22.292Z,959.69
2016-05-27T03:32:22.295Z,959.7
2016-05-27T03:33:22.312Z,959.71
2016-05-27T03:34:22.315Z,959.74
2016-05-27T03:35:22.334Z,959.74
2016-05-27T03:36:22.336Z,959.72
2016-05-27T03:37:22.339Z,959.71
2016-05-27T03:38:22.357Z,959.67
2016-05-27T03:39:22.359Z,959.7
2016-05-27T03:40:22.362Z,959.73
2016-05-27T03:41:22.381Z,959.71
2016-05-27T03:42:22.384Z,959.76
2016-05-27T03:43:22.402Z,959.68
2016-05-27T03:44:22.405Z,959.72
2016-05-27T03:45:22.423Z,959.64
2016-05-27T03:46:22.425Z,959.66
2016-05-27T03:47:22.444Z,959.58
2016-05-27T03:48:22.697Z,959.6
2016-05-27T03:49:22.465Z,959.53
2016-05-27T03:50:22.468Z,959.55
2016-05-27T03:51:22.471Z,959.54
2016-05-27T03:52:22.488Z,959.53
2016-05-27T03:53:22.507Z,959.52
2016-05-27T03:54:22.510Z,959.51
2016-05-27T03:55:22.527Z,959.53
2016-05-27T03:56:22.530Z,959.55
2016-05-27T03:57:22.533Z,959.54
2016-05-27T03:58:22.551Z,959.51
2016-05-27T03:59:22.570Z,959.53
2016-05-27T04:00:22.573Z,959.54
2016-05-27T04:01:22.575Z,959.52
2016-05-27T04:02:22.593Z,959.51
2016-05-27T04:03:22.596Z,959.55
2016-05-27T04:04:22.615Z,959.53
2016-05-27T04:05:22.617Z,959.56
2016-05-27T04:06:22.620Z,959.58
2016-05-27T04:07:22.639Z,959.57
2016-05-27T04:08:22.641Z,959.57
2016-05-27T04:09:22.675Z,959.6
2016-05-27T04:10:22.678Z,959.59
2016-05-27T04:11:22.681Z,959.53
2016-05-27T04:12:22.698Z,959.58
2016-05-27T04:13:22.701Z,959.56
2016-05-27T04:14:22.719Z,959.58
2016-05-27T04:15:22.722Z,959.57
2016-05-27T04:16:22.725Z,959.58
2016-05-27T04:17:22.744Z,959.58
2016-05-27T04:18:22.777Z,959.55
2016-05-27T04:19:23.030Z,959.51
2016-05-27T04:20:22.767Z,959.53
2016-05-27T04:21:22.801Z,959.5
2016-05-27T04:22:22.788Z,959.51
2016-05-27T04:23:22.791Z,959.47
2016-05-27T04:24:22.809Z,959.49
2016-05-27T04:25:22.813Z,959.49
2016-05-27T04:26:22.830Z,959.48
2016-05-27T04:27:22.832Z,959.46
2016-05-27T04:28:22.851Z,959.45
2016-05-27T04:29:22.854Z,959.42
2016-05-27T04:30:22.871Z,959.39
2016-05-27T04:31:22.874Z,959.36
2016-05-27T04:32:22.877Z,959.4
2016-05-27T04:33:22.895Z,959.36
2016-05-27T04:34:22.914Z,959.39
2016-05-27T04:35:22.917Z,959.4
2016-05-27T04:36:22.919Z,959.43
2016-05-27T04:37:22.922Z,959.47
2016-05-27T04:38:22.956Z,959.45
2016-05-27T04:39:22.959Z,959.46
2016-05-27T04:40:22.961Z,959.5
2016-05-27T04:41:22.980Z,959.52
2016-05-27T04:42:22.983Z,959.53
2016-05-27T04:43:22.986Z,959.53
2016-05-27T04:44:23.003Z,959.55
2016-05-27T04:45:23.006Z,959.58
2016-05-27T04:46:23.025Z,959.54
2016-05-27T04:47:23.027Z,959.54
2016-05-27T04:48:23.045Z,959.59
2016-05-27T04:49:23.047Z,959.61
2016-05-27T04:50:23.050Z,959.61
2016-05-27T04:51:23.069Z,959.65
2016-05-27T04:52:23.088Z,959.63
2016-05-27T04:53:23.090Z,959.64
2016-05-27T04:54:23.108Z,959.68
2016-05-27T04:55:23.111Z,959.68
2016-05-27T04:56:23.113Z,959.69
2016-05-27T04:57:23.132Z,959.71
2016-05-27T04:58:23.135Z,959.68
2016-05-27T04:59:23.154Z,959.68
2016-05-27T05:00:23.156Z,959.64
2016-05-27T05:01:23.159Z,959.64
2016-05-27T05:02:23.176Z,959.65
2016-05-27T05:03:23.195Z,959.63
2016-05-27T05:04:23.198Z,959.61
2016-05-27T05:05:23.215Z,959.59
2016-05-27T05:06:23.234Z,959.54
2016-05-27T05:07:23.221Z,959.52
2016-05-27T05:08:23.240Z,959.51
2016-05-27T05:09:23.258Z,959.51
2016-05-27T05:10:23.261Z,959.47
2016-05-27T05:11:23.264Z,959.46
2016-05-27T05:12:23.282Z,959.47
2016-05-27T05:13:23.285Z,959.45
2016-05-27T05:14:23.287Z,959.49
2016-05-27T05:15:23.322Z,959.47
2016-05-27T05:16:23.324Z,959.47
2016-05-27T05:17:23.327Z,959.52
2016-05-27T05:18:23.470Z,959.56
2016-05-27T05:19:23.347Z,959.6
2016-05-27T05:20:23.366Z,959.6
2016-05-27T05:21:23.368Z,959.69
2016-05-27T05:22:23.371Z,959.64
2016-05-27T05:23:23.389Z,959.63
2016-05-27T05:24:23.392Z,959.64
2016-05-27T05:25:23.410Z,959.62
2016-05-27T05:26:23.413Z,959.61
2016-05-27T05:27:23.432Z,959.6
2016-05-27T05:28:23.435Z,959.61
2016-05-27T05:29:23.453Z,959.59
2016-05-27T05:30:23.454Z,959.56
2016-05-27T05:31:23.474Z,959.59
2016-05-27T05:32:23.477Z,959.6
2016-05-27T05:33:23.479Z,959.66
2016-05-27T05:34:23.919Z,959.63
2016-05-27T05:35:23.501Z,959.67
2016-05-27T05:36:23.534Z,959.64
2016-05-27T05:37:23.521Z,959.64
2016-05-27T05:38:23.540Z,959.66
2016-05-27T05:39:23.542Z,959.66
2016-05-27T05:40:23.560Z,959.65
2016-05-27T05:41:23.578Z,959.65
2016-05-27T05:42:23.582Z,959.73
2016-05-27T05:43:23.584Z,959.74
2016-05-27T05:44:23.602Z,959.72
2016-05-27T05:45:23.605Z,959.74
2016-05-27T05:46:23.623Z,959.7
2016-05-27T05:47:23.625Z,959.69
2016-05-27T05:48:23.628Z,959.71
2016-05-27T05:49:23.647Z,959.69
2016-05-27T05:50:23.650Z,959.75
2016-05-27T05:51:23.668Z,959.76
2016-05-27T05:52:23.671Z,959.8
2016-05-27T05:53:23.688Z,959.78
2016-05-27T05:54:23.692Z,959.76
2016-05-27T05:55:23.710Z,959.76
2016-05-27T05:56:23.744Z,959.75
2016-05-27T05:57:23.715Z,959.77
2016-05-27T05:58:23.733Z,959.76
2016-05-27T05:59:23.736Z,959.75
2016-05-27T06:00:23.755Z,959.78
2016-05-27T06:01:23.774Z,959.8
2016-05-27T06:02:23.776Z,959.73
2016-05-27T06:03:23.794Z,959.82
2016-05-27T06:04:23.796Z,959.84
2016-05-27T06:05:23.815Z,959.84
2016-05-27T06:06:23.818Z,959.8
2016-05-27T06:07:23.821Z,959.83
2016-05-27T06:08:23.839Z,959.83
2016-05-27T06:09:23.842Z,959.84
2016-05-27T06:10:23.860Z,959.82
2016-05-27T06:11:23.862Z,959.76
2016-05-27T06:12:23.864Z,959.74
2016-05-27T06:13:23.884Z,959.75
2016-05-27T06:14:23.886Z,959.7
2016-05-27T06:15:23.904Z,959.77
2016-05-27T06:16:23.906Z,959.74
2016-05-27T06:17:23.926Z,959.73
2016-05-27T06:18:23.928Z,959.71
2016-05-27T06:19:23.946Z,959.72
2016-05-27T06:20:23.950Z,959.69
2016-05-27T06:21:23.967Z,959.73
2016-05-27T06:22:23.970Z,959.75
2016-05-27T06:23:23.972Z,959.78
2016-05-27T06:24:23.991Z,959.8
2016-05-27T06:25:23.994Z,959.81
2016-05-27T06:26:24.012Z,959.81
2016-05-27T06:27:24.015Z,959.84
2016-05-27T06:28:24.033Z,959.81
2016-05-27T06:29:24.036Z,959.83
2016-05-27T06:30:24.054Z,959.78
2016-05-27T06:31:24.072Z,959.81
2016-05-27T06:32:24.075Z,959.79
2016-05-27T06:33:24.093Z,959.78
2016-05-27T06:34:24.096Z,959.77
2016-05-27T06:35:24.099Z,959.8
2016-05-27T06:36:24.101Z,959.78
2016-05-27T06:37:24.120Z,959.83
2016-05-27T06:38:24.123Z,959.8
2016-05-27T06:39:24.140Z,959.84
2016-05-27T06:40:24.144Z,959.88
2016-05-27T06:41:24.178Z,959.91
2016-05-27T06:42:24.164Z,959.88
2016-05-27T06:43:24.184Z,959.94
2016-05-27T06:44:24.186Z,959.94
2016-05-27T06:45:24.203Z,959.91
2016-05-27T06:46:24.206Z,959.92
2016-05-27T06:47:24.225Z,959.88
2016-05-27T06:48:24.837Z,959.87
2016-05-27T06:49:24.449Z,959.84
2016-05-27T06:50:24.248Z,959.89
2016-05-27T06:51:24.267Z,959.88
2016-05-27T06:52:24.269Z,959.88
2016-05-27T06:53:24.288Z,959.91
2016-05-27T06:54:24.291Z,959.93
2016-05-27T06:55:24.324Z,959.9
2016-05-27T06:56:24.312Z,959.91
2016-05-27T06:57:24.314Z,959.92
2016-05-27T06:58:24.333Z,959.95
2016-05-27T06:59:24.444Z,960
2016-05-27T07:00:24.337Z,959.99
2016-05-27T07:01:24.357Z,959.98
2016-05-27T07:02:24.375Z,960.02
2016-05-27T07:03:24.377Z,960
2016-05-27T07:04:24.395Z,960
2016-05-27T07:05:24.399Z,960
2016-05-27T07:06:24.401Z,960
2016-05-27T07:07:24.418Z,960.02
2016-05-27T07:08:24.438Z,959.98
2016-05-27T07:09:24.440Z,959.97
2016-05-27T07:10:24.459Z,959.96
2016-05-27T07:11:24.461Z,959.96
2016-05-27T07:12:24.479Z,959.91
2016-05-27T07:13:24.482Z,959.96
2016-05-27T07:14:26.734Z,959.92
2016-05-27T07:15:24.503Z,959.9
2016-05-27T07:16:24.522Z,959.9
2016-05-27T07:17:24.524Z,959.92
2016-05-27T07:18:24.528Z,959.91
2016-05-27T07:19:24.545Z,959.88
2016-05-27T07:20:24.564Z,959.9
2016-05-27T07:21:24.566Z,959.92
2016-05-27T07:22:24.570Z,959.9
2016-05-27T07:23:24.572Z,959.88
2016-05-27T07:24:24.589Z,959.89
2016-05-27T07:25:24.592Z,959.85
2016-05-27T07:26:24.611Z,959.88
2016-05-27T07:27:24.614Z,959.91
2016-05-27T07:28:24.632Z,959.84
2016-05-27T07:29:24.650Z,959.91
2016-05-27T07:30:24.653Z,959.89
2016-05-27T07:31:24.672Z,959.92
2016-05-27T07:32:24.674Z,959.94
2016-05-27T07:33:24.676Z,959.96
2016-05-27T07:34:24.696Z,959.97
2016-05-27T07:35:24.698Z,959.99
2016-05-27T07:36:24.716Z,959.98
2016-05-27T07:37:24.719Z,959.98
2016-05-27T07:38:24.737Z,959.99
2016-05-27T07:39:24.739Z,960.01
2016-05-27T07:40:24.743Z,960.01
2016-05-27T07:41:24.760Z,960.02
2016-05-27T07:42:24.763Z,960.05
2016-05-27T07:43:24.781Z,960.04
2016-05-27T07:44:24.785Z,960.03
2016-05-27T07:45:24.802Z,960.06
2016-05-27T07:46:24.806Z,960.07
2016-05-27T07:47:24.824Z,960.06
2016-05-27T07:48:24.826Z,960.08
2016-05-27T07:49:25.531Z,960.1
2016-05-27T07:50:24.848Z,960.09
2016-05-27T07:51:24.850Z,960.08
2016-05-27T07:52:24.868Z,960.13
2016-05-27T07:53:24.871Z,960.16
2016-05-27T07:54:24.874Z,960.13
2016-05-27T07:55:24.876Z,960.19
2016-05-27T07:56:24.894Z,960.16
2016-05-27T07:57:24.913Z,960.16
2016-05-27T07:58:24.916Z,960.14
2016-05-27T07:59:24.918Z,960.19
2016-05-27T08:00:24.922Z,960.24
2016-05-27T08:01:24.939Z,960.2
2016-05-27T08:02:24.941Z,960.26
2016-05-27T08:03:24.960Z,960.25
2016-05-27T08:04:25.822Z,960.26
2016-05-27T08:05:24.966Z,960.28
2016-05-27T08:06:24.984Z,960.28
2016-05-27T08:07:24.987Z,960.3
2016-05-27T08:08:25.004Z,960.28
2016-05-27T08:09:25.008Z,960.24
2016-05-27T08:10:25.010Z,960.26
2016-05-27T08:11:25.029Z,960.26
2016-05-27T08:12:25.031Z,960.3
2016-05-27T08:13:25.035Z,960.33
2016-05-27T08:14:27.240Z,960.31
2016-05-27T08:15:25.056Z,960.27
2016-05-27T08:16:25.058Z,960.28
2016-05-27T08:17:25.061Z,960.24
2016-05-27T08:18:25.079Z,960.32
2016-05-27T08:19:27.112Z,960.33
2016-05-27T08:20:25.084Z,960.36
2016-05-27T08:21:25.103Z,960.38
2016-05-27T08:22:25.105Z,960.34
2016-05-27T08:23:25.124Z,960.38
2016-05-27T08:24:25.814Z,960.42
2016-05-27T08:25:25.144Z,960.44
2016-05-27T08:26:25.147Z,960.42
2016-05-27T08:27:25.150Z,960.45
2016-05-27T08:28:25.169Z,960.45
2016-05-27T08:29:25.796Z,960.4
2016-05-27T08:30:25.189Z,960.44
2016-05-27T08:31:25.192Z,960.5
2016-05-27T08:32:25.194Z,960.49
2016-05-27T08:33:25.197Z,960.48
2016-05-27T08:34:25.638Z,960.48
2016-05-27T08:35:25.219Z,960.49
2016-05-27T08:36:25.283Z,960.42
2016-05-27T08:37:25.240Z,960.43
2016-05-27T08:38:25.242Z,960.45
2016-05-27T08:39:26.666Z,960.42
2016-05-27T08:40:25.263Z,960.43
2016-05-27T08:41:25.282Z,960.46
2016-05-27T08:42:25.284Z,960.51
2016-05-27T08:43:25.302Z,960.5
2016-05-27T08:44:25.305Z,960.55
2016-05-27T08:45:25.307Z,960.6
2016-05-27T08:46:25.310Z,960.57
2016-05-27T08:47:25.329Z,960.61
2016-05-27T08:48:25.331Z,960.6
2016-05-27T08:49:26.178Z,960.61
2016-05-27T08:50:25.353Z,960.63
2016-05-27T08:51:25.356Z,960.62
2016-05-27T08:52:25.374Z,960.61
2016-05-27T08:53:25.392Z,960.53
2016-05-27T08:54:25.379Z,960.56
2016-05-27T08:55:25.413Z,960.54
2016-05-27T08:56:25.400Z,960.47
2016-05-27T08:57:25.419Z,960.56
2016-05-27T08:58:25.421Z,960.58
2016-05-27T08:59:25.470Z,960.55
2016-05-27T09:00:25.441Z,960.56
2016-05-27T09:01:25.445Z,960.57
2016-05-27T09:02:25.463Z,960.57
2016-05-27T09:03:25.466Z,960.58
2016-05-27T09:04:28.688Z,960.56
2016-05-27T09:05:25.486Z,960.58
2016-05-27T09:06:25.505Z,960.62
2016-05-27T09:07:25.508Z,960.62
2016-05-27T09:08:25.510Z,960.61
2016-05-27T09:09:25.529Z,960.57
2016-05-27T09:10:25.532Z,960.57
2016-05-27T09:11:25.534Z,960.58
2016-05-27T09:12:25.537Z,960.55
2016-05-27T09:13:25.554Z,960.57
2016-05-27T09:14:25.558Z,960.6
2016-05-27T09:15:25.576Z,960.57
2016-05-27T09:16:25.594Z,960.52
2016-05-27T09:17:25.597Z,960.53
2016-05-27T09:18:25.601Z,960.49
2016-05-27T09:19:25.618Z,960.51
2016-05-27T09:20:25.620Z,960.52
2016-05-27T09:21:25.623Z,960.55
2016-05-27T09:22:25.625Z,960.55
2016-05-27T09:23:25.660Z,960.5
2016-05-27T09:24:26.960Z,960.49
2016-05-27T09:25:25.665Z,960.49
2016-05-27T09:26:25.684Z,960.48
2016-05-27T09:27:25.686Z,960.46
2016-05-27T09:28:25.705Z,960.47
2016-05-27T09:29:25.708Z,960.41
2016-05-27T09:30:25.710Z,960.36
2016-05-27T09:31:25.728Z,960.37
2016-05-27T09:32:25.731Z,960.33
2016-05-27T09:33:25.733Z,960.33
2016-05-27T09:34:25.752Z,960.34
2016-05-27T09:35:25.771Z,960.35
2016-05-27T09:36:25.774Z,960.39
2016-05-27T09:37:25.776Z,960.35
2016-05-27T09:38:25.794Z,960.38
2016-05-27T09:39:27.891Z,960.39
2016-05-27T09:40:25.815Z,960.37
2016-05-27T09:41:25.818Z,960.39
2016-05-27T09:42:25.836Z,960.43
2016-05-27T09:43:25.838Z,960.47
2016-05-27T09:44:25.841Z,960.51
2016-05-27T09:45:25.891Z,960.48
2016-05-27T09:46:25.862Z,960.47
2016-05-27T09:47:25.865Z,960.52
2016-05-27T09:48:25.884Z,960.49
2016-05-27T09:49:26.183Z,960.51
2016-05-27T09:50:25.904Z,960.55
2016-05-27T09:51:25.907Z,960.53
2016-05-27T09:52:25.925Z,960.54
2016-05-27T09:53:25.928Z,960.53
2016-05-27T09:54:25.947Z,960.52
2016-05-27T09:55:25.950Z,960.54
2016-05-27T09:56:25.952Z,960.57
2016-05-27T09:57:25.970Z,960.54
2016-05-27T09:58:25.972Z,960.54
2016-05-27T09:59:25.992Z,960.5
2016-05-27T10:00:25.994Z,960.52
2016-05-27T10:01:26.012Z,960.54
2016-05-27T10:02:26.014Z,960.53
2016-05-27T10:03:26.033Z,960.52
2016-05-27T10:04:26.035Z,960.53
2016-05-27T10:05:26.055Z,960.49
2016-05-27T10:06:26.073Z,960.51
2016-05-27T10:07:26.075Z,960.48
2016-05-27T10:08:26.077Z,960.48
2016-05-27T10:09:26.080Z,960.52
2016-05-27T10:10:26.098Z,960.5
2016-05-27T10:11:26.117Z,960.53
2016-05-27T10:12:26.121Z,960.51
2016-05-27T10:13:26.123Z,960.53
2016-05-27T10:14:26.141Z,960.53
2016-05-27T10:15:26.143Z,960.51
2016-05-27T10:16:26.162Z,960.54
2016-05-27T10:17:26.165Z,960.55
2016-05-27T10:18:26.183Z,960.52
2016-05-27T10:19:26.185Z,960.56
2016-05-27T10:20:26.204Z,960.6
2016-05-27T10:21:26.206Z,960.53
2016-05-27T10:22:26.225Z,960.55
2016-05-27T10:23:26.228Z,960.53
2016-05-27T10:24:26.246Z,960.51
2016-05-27T10:25:26.248Z,960.46
2016-05-27T10:26:26.267Z,960.46
2016-05-27T10:27:26.286Z,960.43
2016-05-27T10:28:26.272Z,960.46
2016-05-27T10:29:26.291Z,960.45
2016-05-27T10:30:26.309Z,960.44
2016-05-27T10:31:26.311Z,960.45
2016-05-27T10:32:26.330Z,960.42
2016-05-27T10:33:26.333Z,960.43
2016-05-27T10:34:26.335Z,960.4
2016-05-27T10:35:26.353Z,960.42
2016-05-27T10:36:26.356Z,960.4
2016-05-27T10:37:26.390Z,960.38
2016-05-27T10:38:26.394Z,960.35
2016-05-27T10:39:26.396Z,960.37
2016-05-27T10:40:26.398Z,960.41
2016-05-27T10:41:26.417Z,960.4
2016-05-27T10:42:26.419Z,960.39
2016-05-27T10:43:26.422Z,960.33
2016-05-27T10:44:26.441Z,960.33
2016-05-27T10:45:26.459Z,960.32
2016-05-27T10:46:26.462Z,960.31
2016-05-27T10:47:26.464Z,960.31
2016-05-27T10:48:26.482Z,960.31
2016-05-27T10:49:26.500Z,960.29
2016-05-27T10:50:26.503Z,960.25
2016-05-27T10:51:26.522Z,960.23
2016-05-27T10:52:26.524Z,960.26
2016-05-27T10:53:26.542Z,960.22
2016-05-27T10:54:26.545Z,960.26
2016-05-27T10:55:26.564Z,960.26
2016-05-27T10:56:26.592Z,960.27
2016-05-27T10:57:26.636Z,960.28
2016-05-27T10:58:26.664Z,960.26
2016-05-27T10:59:26.755Z,960.25
2016-05-27T11:00:26.737Z,960.24
2016-05-27T11:01:26.749Z,960.25
2016-05-27T11:02:26.777Z,960.2
2016-05-27T11:03:26.789Z,960.24
2016-05-27T11:04:26.846Z,960.22
2016-05-27T11:05:28.063Z,960.27
2016-05-27T11:06:26.850Z,960.26
2016-05-27T11:07:26.856Z,960.23
2016-05-27T11:08:26.877Z,960.22
2016-05-27T11:09:26.883Z,960.23
2016-05-27T11:10:27.390Z,960.21
2016-05-27T11:11:26.925Z,960.22
2016-05-27T11:12:26.944Z,960.25
2016-05-27T11:13:26.932Z,960.22
2016-05-27T11:14:26.968Z,960.23
2016-05-27T11:15:26.972Z,960.24
2016-05-27T11:16:26.975Z,960.22
2016-05-27T11:17:26.978Z,960.23
2016-05-27T11:18:26.996Z,960.28
2016-05-27T11:19:27.484Z,960.25
2016-05-27T11:20:27.018Z,960.21
2016-05-27T11:21:27.021Z,960.22
2016-05-27T11:22:27.040Z,960.23
2016-05-27T11:23:27.058Z,960.18
2016-05-27T11:24:27.061Z,960.21
2016-05-27T11:25:27.065Z,960.2
2016-05-27T11:26:27.083Z,960.21
2016-05-27T11:27:27.102Z,960.21
2016-05-27T11:28:27.104Z,960.18
2016-05-27T11:29:27.122Z,960.2
2016-05-27T11:30:28.281Z,960.18
2016-05-27T11:31:27.143Z,960.19
2016-05-27T11:32:27.162Z,960.16
2016-05-27T11:33:27.164Z,960.21
2016-05-27T11:34:27.168Z,960.16
2016-05-27T11:35:27.185Z,960.19
2016-05-27T11:36:27.187Z,960.16
2016-05-27T11:37:27.207Z,960.18
2016-05-27T11:38:27.224Z,960.18
2016-05-27T11:39:27.227Z,960.15
2016-05-27T11:40:27.230Z,960.13
2016-05-27T11:41:27.248Z,960.17
2016-05-27T11:42:27.251Z,960.11
2016-05-27T11:43:27.270Z,960.15
2016-05-27T11:44:27.272Z,960.14
2016-05-27T11:45:27.290Z,960.07
2016-05-27T11:46:27.293Z,960.14
2016-05-27T11:47:27.327Z,960.12
2016-05-27T11:48:27.330Z,960.14
2016-05-27T11:49:27.333Z,960.12
2016-05-27T11:50:27.350Z,960.12
2016-05-27T11:51:27.370Z,960.05
2016-05-27T11:52:27.372Z,960.05
2016-05-27T11:53:27.389Z,960.05
2016-05-27T11:54:27.392Z,960.06
2016-05-27T11:55:27.395Z,960.06
2016-05-27T11:56:27.413Z,960.05
2016-05-27T11:57:27.416Z,960.08
2016-05-27T11:58:27.435Z,960.09
2016-05-27T11:59:27.437Z,960.03
2016-05-27T12:00:27.456Z,960.07
2016-05-27T12:01:27.458Z,960.02
2016-05-27T12:02:27.477Z,959.99
2016-05-27T12:03:27.495Z,960
2016-05-27T12:04:27.966Z,959.95
2016-05-27T12:05:27.516Z,959.96
2016-05-27T12:06:27.535Z,959.94
2016-05-27T12:07:27.521Z,959.95
2016-05-27T12:08:27.540Z,959.96
2016-05-27T12:09:27.557Z,959.92
2016-05-27T12:10:27.561Z,959.88
2016-05-27T12:11:27.579Z,959.86
2016-05-27T12:12:27.598Z,959.92
2016-05-27T12:13:27.600Z,959.89
2016-05-27T12:14:27.603Z,959.89
2016-05-27T12:15:27.871Z,959.92
2016-05-27T12:16:27.623Z,959.88
2016-05-27T12:17:27.642Z,959.91
2016-05-27T12:18:27.660Z,959.89
2016-05-27T12:19:27.664Z,959.92
2016-05-27T12:20:27.666Z,959.89
2016-05-27T12:21:27.683Z,959.93
2016-05-27T12:22:27.703Z,959.91
2016-05-27T12:23:27.705Z,959.92
2016-05-27T12:24:27.723Z,959.92
2016-05-27T12:25:27.726Z,959.88
2016-05-27T12:26:27.744Z,959.88
2016-05-27T12:27:27.747Z,959.89
2016-05-27T12:28:27.780Z,959.89
2016-05-27T12:29:27.768Z,959.85
2016-05-27T12:30:27.771Z,959.85
2016-05-27T12:31:27.804Z,959.86